Marion, Connecticut
Current Conditions -  °F | °C
As of 3:53 AM on Thursday 23 Oct 2014 (Local Time) from KMMK Reporting Station
Overcast Overcast  
Wind Chill: 50°   Ceiling: 1600
Heat Index: 50°   Visibility: 10mi
Dew Point: 45°   Wind: 17mph
Humidity: 83%   Direction: 10°N
Pressure: 29.7"   Gusts: 28mph
Location:  41.56°N, 72.93°W
Report Text: KMMK 230753Z AUTO 01015G24KT 10SM OVC016 10/07 A2970 RMK AO2 PK WND 36032/0711 SLP055 T01000072 TSNO
Loading
Personal Weather Stations






























Interactive Weather Map
Tropical Storm Tracking
New forecast layout! Learn more

10-Day Weather Forecast

Advertisements
Track Severe Weather on mobile